createdAt,value
2022-11-08T00:01:32.606Z,10.95
2022-11-08T00:04:34.674Z,10.89
2022-11-08T00:07:54.722Z,10.77
2022-11-08T00:11:20.844Z,10.76
2022-11-08T00:14:22.258Z,10.77
2022-11-08T00:17:26.161Z,10.96
2022-11-08T00:20:27.674Z,10.79
2022-11-08T00:23:29.186Z,10.77
2022-11-08T00:26:30.661Z,10.65
2022-11-08T00:29:34.334Z,10.82
2022-11-08T00:32:35.705Z,10.90
2022-11-08T00:35:37.115Z,10.69
2022-11-08T00:38:42.584Z,10.82
2022-11-08T00:41:43.999Z,10.92
2022-11-08T00:44:45.569Z,10.75
2022-11-08T00:47:47.383Z,10.83
2022-11-08T00:50:48.789Z,10.74
2022-11-08T00:53:50.227Z,10.77
2022-11-08T00:56:51.675Z,10.69
2022-11-08T00:59:53.079Z,10.80
2022-11-08T01:03:14.776Z,10.68
2022-11-08T01:06:18.833Z,10.63
2022-11-08T01:09:20.310Z,10.68
2022-11-08T01:12:21.706Z,10.76
2022-11-08T01:15:23.227Z,10.70
2022-11-08T01:18:25.133Z,10.72
2022-11-08T01:21:27.432Z,10.67
2022-11-08T01:24:28.768Z,10.63
2022-11-08T01:27:30.287Z,10.68
2022-11-08T01:30:32.143Z,10.68
2022-11-08T01:33:34.121Z,10.74
2022-11-08T01:36:36.615Z,10.74
2022-11-08T01:39:38.026Z,10.61
2022-11-08T01:42:39.455Z,10.65
2022-11-08T01:46:15.035Z,10.62
2022-11-08T01:49:26.596Z,10.64
2022-11-08T01:52:33.452Z,10.68
2022-11-08T01:55:36.776Z,10.69
2022-11-08T01:58:41.228Z,10.68
2022-11-08T02:01:44.012Z,10.63
2022-11-08T02:04:45.592Z,10.54
2022-11-08T02:07:47.020Z,10.40
2022-11-08T02:10:52.044Z,10.38
2022-11-08T02:13:54.449Z,10.44
2022-11-08T02:16:55.970Z,10.34
2022-11-08T02:19:57.529Z,10.28
2022-11-08T02:23:03.570Z,9.98
2022-11-08T02:26:05.042Z,9.81
2022-11-08T02:29:27.512Z,10.00
2022-11-08T02:32:37.715Z,9.99
2022-11-08T02:35:39.150Z,10.13
2022-11-08T02:38:45.727Z,10.17
2022-11-08T02:41:47.136Z,10.19
2022-11-08T02:44:49.381Z,10.21
2022-11-08T02:47:50.809Z,10.09
2022-11-08T02:50:52.408Z,10.05
2022-11-08T02:53:53.851Z,10.07
2022-11-08T02:56:55.328Z,10.04
2022-11-08T02:59:56.688Z,9.81
2022-11-08T03:02:58.652Z,9.92
2022-11-08T03:06:00.356Z,9.97
2022-11-08T03:09:01.930Z,9.95
2022-11-08T03:12:03.499Z,9.93
2022-11-08T03:15:06.746Z,10.01
2022-11-08T03:18:08.266Z,10.08
2022-11-08T03:21:10.338Z,10.07
2022-11-08T03:24:12.364Z,9.95
2022-11-08T03:27:15.150Z,9.84
2022-11-08T03:30:16.572Z,9.81
2022-11-08T03:33:18.035Z,9.72
2022-11-08T03:36:19.519Z,9.53
2022-11-08T03:39:20.897Z,9.41
2022-11-08T03:42:22.285Z,9.34
2022-11-08T03:45:23.921Z,9.25
2022-11-08T03:48:25.486Z,9.35
2022-11-08T03:51:26.885Z,9.29
2022-11-08T03:54:28.277Z,9.53
2022-11-08T03:57:29.678Z,9.55
2022-11-08T04:00:31.079Z,9.63
2022-11-08T04:03:32.869Z,9.65
2022-11-08T04:06:34.336Z,9.73
2022-11-08T04:09:35.740Z,9.58
2022-11-08T04:13:02.573Z,9.79
2022-11-08T04:16:04.363Z,9.73
2022-11-08T04:19:24.523Z,9.62
2022-11-08T04:22:25.905Z,9.77
2022-11-08T04:25:31.165Z,9.76
2022-11-08T04:28:37.242Z,9.82
2022-11-08T04:31:39.189Z,9.72
2022-11-08T04:34:40.606Z,9.72
2022-11-08T04:37:42.044Z,9.42
2022-11-08T04:40:43.585Z,9.52
2022-11-08T04:43:45.078Z,9.34
2022-11-08T04:46:46.507Z,9.40
2022-11-08T04:49:47.989Z,9.43
2022-11-08T04:52:55.941Z,9.43
2022-11-08T04:56:06.324Z,9.26
2022-11-08T04:59:11.753Z,9.36
2022-11-08T05:02:13.672Z,9.52
2022-11-08T05:05:15.182Z,9.72
2022-11-08T05:08:16.863Z,9.54
2022-11-08T05:11:22.346Z,9.46
2022-11-08T05:14:23.710Z,9.39
2022-11-08T05:17:25.144Z,9.20
2022-11-08T05:20:44.949Z,9.39
2022-11-08T05:23:47.451Z,9.37
2022-11-08T05:26:49.072Z,9.41
2022-11-08T05:29:50.475Z,9.44
2022-11-08T05:32:52.774Z,9.54
2022-11-08T05:35:54.154Z,9.58
2022-11-08T05:38:56.247Z,9.51
2022-11-08T05:41:57.619Z,9.48
2022-11-08T05:44:59.024Z,9.47
2022-11-08T05:48:03.697Z,9.46
2022-11-08T05:51:05.657Z,9.50
2022-11-08T05:54:08.103Z,9.42
2022-11-08T05:57:10.112Z,9.35
2022-11-08T06:00:12.615Z,9.27
2022-11-08T06:03:14.075Z,9.32
2022-11-08T06:06:17.847Z,9.33
2022-11-08T06:09:19.345Z,9.33
2022-11-08T06:12:20.787Z,9.38
2022-11-08T06:15:22.186Z,9.51
2022-11-08T06:18:23.599Z,9.55
2022-11-08T06:21:27.136Z,9.42
2022-11-08T06:24:28.571Z,9.54
2022-11-08T06:27:30.119Z,9.53
2022-11-08T06:30:31.505Z,9.45
2022-11-08T06:33:33.483Z,9.51
2022-11-08T06:36:35.012Z,9.44
2022-11-08T06:39:36.398Z,9.33
2022-11-08T06:42:37.789Z,9.46
2022-11-08T06:45:39.609Z,9.37
2022-11-08T06:48:41.153Z,9.44
2022-11-08T06:51:42.566Z,9.49
2022-11-08T06:54:44.143Z,9.39
2022-11-08T06:57:45.623Z,9.39
2022-11-08T07:00:47.018Z,9.33
2022-11-08T07:03:48.403Z,9.66
2022-11-08T07:06:49.827Z,9.80
2022-11-08T07:09:51.206Z,9.78
2022-11-08T07:13:12.931Z,9.82
2022-11-08T07:16:14.618Z,10.04
2022-11-08T07:19:16.097Z,9.94
2022-11-08T07:22:17.587Z,9.93
2022-11-08T07:25:19.100Z,9.97
2022-11-08T07:28:21.160Z,9.88
2022-11-08T07:31:23.797Z,9.74
2022-11-08T07:34:25.203Z,9.86
2022-11-08T07:37:26.582Z,9.82
2022-11-08T07:40:28.212Z,10.01
2022-11-08T07:43:30.719Z,9.93
2022-11-08T07:46:43.275Z,10.17
2022-11-08T07:49:44.694Z,10.22
2022-11-08T07:52:49.840Z,10.25
2022-11-08T07:55:51.315Z,10.35
2022-11-08T07:58:53.274Z,10.49
2022-11-08T08:01:54.707Z,10.47
2022-11-08T08:04:56.169Z,10.35
2022-11-08T08:07:59.272Z,10.50
2022-11-08T08:11:01.376Z,10.52
2022-11-08T08:14:02.805Z,10.29
2022-11-08T08:17:04.209Z,10.47
2022-11-08T08:20:06.324Z,10.45
2022-11-08T08:23:07.824Z,10.57
2022-11-08T08:26:09.284Z,10.73
2022-11-08T08:29:10.679Z,10.91
2022-11-08T08:32:12.112Z,11.26
2022-11-08T08:35:13.784Z,11.39
2022-11-08T08:38:15.275Z,11.60
2022-11-08T08:41:16.935Z,11.80
2022-11-08T08:44:18.366Z,11.99
2022-11-08T08:47:19.739Z,12.25
2022-11-08T08:50:21.814Z,12.13
2022-11-08T08:53:23.298Z,12.19
2022-11-08T08:56:24.733Z,12.08
2022-11-08T09:02:49.559Z,11.87
2022-11-08T09:05:51.103Z,12.11
2022-11-08T09:08:52.506Z,12.52
2022-11-08T09:11:54.028Z,12.70
2022-11-08T09:14:56.227Z,12.84
2022-11-08T09:17:58.167Z,12.90
2022-11-08T09:21:00.338Z,13.23
2022-11-08T09:24:01.800Z,13.70
2022-11-08T09:27:03.721Z,14.01
2022-11-08T09:30:06.353Z,14.41
2022-11-08T09:33:07.887Z,14.61
2022-11-08T09:36:13.081Z,14.78
2022-11-08T09:39:14.607Z,14.86
2022-11-08T09:42:38.204Z,14.99
2022-11-08T09:45:47.939Z,15.11
2022-11-08T09:48:52.049Z,15.21
2022-11-08T09:51:53.829Z,15.33
2022-11-08T09:55:16.138Z,15.58
2022-11-08T09:58:22.931Z,15.39
2022-11-08T10:01:27.260Z,15.67
2022-11-08T10:04:31.939Z,15.73
2022-11-08T10:07:41.965Z,15.83
2022-11-08T10:11:12.238Z,16.04
2022-11-08T10:14:46.710Z,16.05
2022-11-08T10:18:29.854Z,16.41
2022-11-08T10:21:45.416Z,16.46
2022-11-08T10:25:11.607Z,16.00
2022-11-08T10:28:17.509Z,15.59
2022-11-08T10:31:19.808Z,15.32
2022-11-08T10:34:26.881Z,15.23
2022-11-08T10:37:29.639Z,14.82
2022-11-08T10:40:44.097Z,15.52
2022-11-08T10:43:52.171Z,15.41
2022-11-08T10:46:56.551Z,15.19
2022-11-08T10:50:03.407Z,15.14
2022-11-08T10:53:05.949Z,14.95
2022-11-08T10:56:07.499Z,14.77
2022-11-08T10:59:29.835Z,14.91
2022-11-08T11:02:35.584Z,14.98
2022-11-08T11:05:42.441Z,15.19
2022-11-08T11:08:54.689Z,15.13
2022-11-08T11:12:00.199Z,15.05
2022-11-08T11:15:03.803Z,14.92
2022-11-08T11:18:17.559Z,14.73
2022-11-08T11:21:21.959Z,14.56
2022-11-08T11:24:24.294Z,14.53
2022-11-08T11:27:30.866Z,14.53
2022-11-08T11:30:35.247Z,14.63
2022-11-08T11:33:44.124Z,14.56
2022-11-08T11:37:06.359Z,14.51
2022-11-08T11:40:29.741Z,14.60
2022-11-08T11:43:39.218Z,14.68
2022-11-08T11:47:04.127Z,14.72
2022-11-08T11:50:36.614Z,14.70
2022-11-08T11:53:39.795Z,14.73
2022-11-08T11:56:52.104Z,14.96
2022-11-08T11:59:59.739Z,15.14
2022-11-08T12:03:47.466Z,15.34
2022-11-08T12:07:25.973Z,15.40
2022-11-08T12:10:39.458Z,15.33
2022-11-08T12:14:02.638Z,15.37
2022-11-08T12:17:29.616Z,15.35
2022-11-08T12:20:38.636Z,15.32
2022-11-08T12:23:47.664Z,15.29
2022-11-08T12:26:56.302Z,15.38
2022-11-08T12:30:11.434Z,15.41
2022-11-08T12:33:42.052Z,15.53
2022-11-08T12:36:55.382Z,15.41
2022-11-08T12:40:03.923Z,15.62
2022-11-08T12:43:46.941Z,15.70
2022-11-08T12:47:30.034Z,15.66
2022-11-08T12:50:41.282Z,15.55
2022-11-08T12:54:01.819Z,15.65
2022-11-08T12:57:10.228Z,15.63
2022-11-08T13:00:18.128Z,15.54
2022-11-08T13:03:33.406Z,15.75
2022-11-08T13:06:56.775Z,15.72
2022-11-08T13:10:23.315Z,15.67
2022-11-08T13:13:45.855Z,15.78
2022-11-08T13:17:15.895Z,15.64
2022-11-08T13:20:44.963Z,15.72
2022-11-08T13:23:46.491Z,15.74
2022-11-08T13:26:50.071Z,15.81
2022-11-08T13:29:53.165Z,15.70
2022-11-08T13:33:00.560Z,16.08
2022-11-08T13:36:01.929Z,16.20
2022-11-08T13:39:33.547Z,16.53
2022-11-08T13:42:50.289Z,16.66
2022-11-08T13:45:52.911Z,16.88
2022-11-08T13:49:06.319Z,16.85
2022-11-08T13:52:59.088Z,16.78
2022-11-08T13:56:06.364Z,16.85
2022-11-08T13:59:33.006Z,16.63
2022-11-08T14:02:35.074Z,16.63
2022-11-08T14:05:48.138Z,16.46
2022-11-08T14:09:01.767Z,16.49
2022-11-08T14:12:14.899Z,16.36
2022-11-08T14:15:34.322Z,16.24
2022-11-08T14:18:39.014Z,16.07
2022-11-08T14:21:47.443Z,16.04
2022-11-08T14:24:52.476Z,16.07
2022-11-08T14:27:53.987Z,16.02
2022-11-08T14:30:56.790Z,16.15
2022-11-08T14:33:59.544Z,16.28
2022-11-08T14:37:01.899Z,16.26
2022-11-08T14:40:04.858Z,16.20
2022-11-08T14:43:06.723Z,16.22
2022-11-08T14:46:27.589Z,16.18
2022-11-08T14:49:38.268Z,16.33
2022-11-08T14:52:39.700Z,16.25
2022-11-08T14:55:41.240Z,16.19
2022-11-08T14:58:43.792Z,15.98
2022-11-08T15:01:48.592Z,16.04
2022-11-08T15:04:50.278Z,15.81
2022-11-08T15:07:51.795Z,15.43
2022-11-08T15:11:28.609Z,15.48
2022-11-08T15:14:33.897Z,15.44
2022-11-08T15:17:38.503Z,15.44
2022-11-08T15:20:53.045Z,15.45
2022-11-08T15:24:09.975Z,15.37
2022-11-08T15:27:11.320Z,15.23
2022-11-08T15:30:19.093Z,15.04
2022-11-08T15:33:40.706Z,15.01
2022-11-08T15:36:42.216Z,15.08
2022-11-08T15:39:44.168Z,14.97
2022-11-08T15:42:47.511Z,14.64
2022-11-08T15:45:55.204Z,14.61
2022-11-08T15:48:58.700Z,14.57
2022-11-08T15:52:00.240Z,14.51
2022-11-08T15:55:01.734Z,14.36
2022-11-08T15:58:04.609Z,14.41
2022-11-08T16:01:06.814Z,14.32
2022-11-08T16:04:12.497Z,14.39
2022-11-08T16:07:14.144Z,14.11
2022-11-08T16:10:19.104Z,14.16
2022-11-08T16:13:26.998Z,14.11
2022-11-08T16:16:32.663Z,14.09
2022-11-08T16:19:36.470Z,14.16
2022-11-08T16:22:37.930Z,14.25
2022-11-08T16:25:40.988Z,14.20
2022-11-08T16:28:42.875Z,14.02
2022-11-08T16:31:44.268Z,14.03
2022-11-08T16:34:45.644Z,14.12
2022-11-08T16:37:47.943Z,14.25
2022-11-08T16:40:49.260Z,14.24
2022-11-08T16:43:51.303Z,14.24
2022-11-08T16:46:53.596Z,14.20
2022-11-08T16:49:56.425Z,14.32
2022-11-08T16:52:57.860Z,14.25
2022-11-08T16:55:59.422Z,14.43
2022-11-08T16:59:00.813Z,14.35
2022-11-08T17:02:02.231Z,14.35
2022-11-08T17:05:04.501Z,14.57
2022-11-08T17:08:05.976Z,14.73
2022-11-08T17:11:07.417Z,14.70
2022-11-08T17:14:12.038Z,15.09
2022-11-08T17:17:14.206Z,15.09
2022-11-08T17:20:16.920Z,14.93
2022-11-08T17:23:18.273Z,14.89
2022-11-08T17:26:19.750Z,14.84
2022-11-08T17:29:21.199Z,14.78
2022-11-08T17:32:22.726Z,14.88
2022-11-08T17:35:24.577Z,14.95
2022-11-08T17:38:26.178Z,15.37
2022-11-08T17:41:27.627Z,15.36
2022-11-08T17:44:29.480Z,15.36
2022-11-08T17:47:30.864Z,15.29
2022-11-08T17:50:32.247Z,15.35
2022-11-08T17:53:34.894Z,15.38
2022-11-08T17:56:36.510Z,15.19
2022-11-08T17:59:37.881Z,15.02
2022-11-08T18:02:39.559Z,15.34
2022-11-08T18:05:41.012Z,15.15
2022-11-08T18:08:42.886Z,14.95
2022-11-08T18:11:47.756Z,15.08
2022-11-08T18:14:49.148Z,14.88
2022-11-08T18:17:50.551Z,14.72
2022-11-08T18:20:55.250Z,14.82
2022-11-08T18:23:59.720Z,14.80
2022-11-08T18:27:01.249Z,14.86
2022-11-08T18:30:02.741Z,14.83
2022-11-08T18:33:04.786Z,14.69
2022-11-08T18:36:11.884Z,14.70
2022-11-08T18:39:18.123Z,14.80
2022-11-08T18:42:20.855Z,15.06
2022-11-08T18:45:22.363Z,14.98
2022-11-08T18:48:23.820Z,15.09
2022-11-08T18:51:25.263Z,14.89
2022-11-08T18:54:26.732Z,14.85
2022-11-08T18:57:28.162Z,14.92
2022-11-08T19:00:29.553Z,15.02
2022-11-08T19:03:31.300Z,14.99
2022-11-08T19:06:32.825Z,14.81
2022-11-08T19:09:34.343Z,14.70
2022-11-08T19:12:35.813Z,14.82
2022-11-08T19:15:37.226Z,14.90
2022-11-08T19:18:39.044Z,14.84
2022-11-08T19:21:42.700Z,14.55
2022-11-08T19:24:44.122Z,14.73
2022-11-08T19:27:45.666Z,14.80
2022-11-08T19:30:54.231Z,14.83
2022-11-08T19:33:55.773Z,14.71
2022-11-08T19:36:57.155Z,14.63
2022-11-08T19:39:58.559Z,14.58
2022-11-08T19:42:59.951Z,14.59
2022-11-08T19:46:03.380Z,14.65
2022-11-08T19:49:05.238Z,14.57
2022-11-08T19:52:06.645Z,14.69
2022-11-08T19:55:08.891Z,14.71
2022-11-08T19:58:10.216Z,14.71
2022-11-08T20:01:16.735Z,14.82
2022-11-08T20:04:18.605Z,14.69
2022-11-08T20:07:20.210Z,14.82
2022-11-08T20:10:22.838Z,14.87
2022-11-08T20:13:24.988Z,14.90
2022-11-08T20:16:31.518Z,14.83
2022-11-08T20:19:32.921Z,14.76
2022-11-08T20:22:34.370Z,14.81
2022-11-08T20:25:35.781Z,14.62
2022-11-08T20:28:41.723Z,14.47
2022-11-08T20:31:43.816Z,14.28
2022-11-08T20:34:46.052Z,14.32
2022-11-08T20:37:47.638Z,14.27
2022-11-08T20:40:49.338Z,14.09
2022-11-08T20:43:50.810Z,13.92
2022-11-08T20:46:52.568Z,13.81
2022-11-08T20:49:54.023Z,13.80
2022-11-08T20:52:55.516Z,13.80
2022-11-08T20:55:58.677Z,13.78
2022-11-08T20:59:00.129Z,13.71
2022-11-08T21:02:01.587Z,13.68
2022-11-08T21:05:03.086Z,13.67
2022-11-08T21:08:57.100Z,13.69
2022-11-08T21:11:26.077Z,13.56
2022-11-08T21:14:27.578Z,13.55
2022-11-08T21:17:29.276Z,13.57
2022-11-08T21:20:31.903Z,13.54
2022-11-08T21:23:33.403Z,13.53
2022-11-08T21:26:36.246Z,13.38
2022-11-08T21:29:38.046Z,13.44
2022-11-08T21:32:39.564Z,13.48
2022-11-08T21:35:41.116Z,13.39
2022-11-08T21:38:42.549Z,13.33
2022-11-08T21:41:43.948Z,13.03
2022-11-08T21:44:45.347Z,12.99
2022-11-08T21:47:53.368Z,12.75
2022-11-08T21:51:03.206Z,12.73
2022-11-08T21:54:05.713Z,12.79
2022-11-08T21:57:07.191Z,12.90
2022-11-08T22:00:10.173Z,12.81
2022-11-08T22:03:11.530Z,12.86
2022-11-08T22:06:12.976Z,12.91
2022-11-08T22:09:14.397Z,12.86
2022-11-08T22:12:15.903Z,12.84
2022-11-08T22:15:17.364Z,12.80
2022-11-08T22:18:26.378Z,12.83
2022-11-08T22:21:41.400Z,12.92
2022-11-08T22:24:43.330Z,12.95
2022-11-08T22:27:44.736Z,13.04
2022-11-08T22:30:52.957Z,13.11
2022-11-08T22:33:54.387Z,13.13
2022-11-08T22:36:55.867Z,13.13
2022-11-08T22:39:57.233Z,13.20
2022-11-08T22:42:58.667Z,13.29
2022-11-08T22:46:00.133Z,13.39
2022-11-08T22:49:01.579Z,13.49
2022-11-08T22:52:03.011Z,13.51
2022-11-08T22:55:04.761Z,13.60
2022-11-08T22:58:06.188Z,13.52
2022-11-08T23:01:10.806Z,13.76
2022-11-08T23:04:12.304Z,13.95
2022-11-08T23:07:13.850Z,14.04
2022-11-08T23:10:15.485Z,14.15
2022-11-08T23:13:35.680Z,14.19
2022-11-08T23:16:41.801Z,14.23
2022-11-08T23:20:01.937Z,14.31
2022-11-08T23:23:21.737Z,14.41
2022-11-08T23:26:41.633Z,14.50
2022-11-08T23:30:01.781Z,14.66
2022-11-08T23:33:05.019Z,14.65
2022-11-08T23:36:12.363Z,14.64
2022-11-08T23:39:13.755Z,14.56
2022-11-08T23:42:33.712Z,14.55
2022-11-08T23:45:35.127Z,14.65
2022-11-08T23:48:37.688Z,14.30
2022-11-08T23:51:39.071Z,14.57
2022-11-08T23:54:40.449Z,14.62
2022-11-08T23:57:41.863Z,14.56
